sensor_id;sensor_type;location;lat;lon;timestamp;P1;durP1;ratioP1;P2;durP2;ratioP2
63699;SDS011;49845;47.130;142.766;2022-10-29T00:01:57;7.22;;;1.45;;
63699;SDS011;49845;47.130;142.766;2022-10-29T00:04:28;3.92;;;1.88;;
63699;SDS011;49845;47.130;142.766;2022-10-29T00:06:59;7.40;;;1.73;;
63699;SDS011;49845;47.130;142.766;2022-10-29T00:09:47;4.45;;;1.42;;
63699;SDS011;49845;47.130;142.766;2022-10-29T00:12:32;10.70;;;2.38;;
63699;SDS011;49845;47.130;142.766;2022-10-29T00:15:12;8.98;;;2.88;;
63699;SDS011;49845;47.130;142.766;2022-10-29T00:19:32;4.65;;;1.85;;
63699;SDS011;49845;47.130;142.766;2022-10-29T00:21:50;3.05;;;1.10;;
63699;SDS011;49845;47.130;142.766;2022-10-29T00:24:22;2.92;;;1.10;;
63699;SDS011;49845;47.130;142.766;2022-10-29T00:27:09;4.35;;;1.60;;
63699;SDS011;49845;47.130;142.766;2022-10-29T00:29:40;3.92;;;2.50;;
63699;SDS011;49845;47.130;142.766;2022-10-29T00:32:12;6.75;;;2.58;;
63699;SDS011;49845;47.130;142.766;2022-10-29T00:34:43;7.13;;;1.90;;
63699;SDS011;49845;47.130;142.766;2022-10-29T00:37:14;4.90;;;2.38;;
63699;SDS011;49845;47.130;142.766;2022-10-29T00:39:47;4.82;;;1.98;;
63699;SDS011;49845;47.130;142.766;2022-10-29T00:42:18;6.20;;;2.15;;
63699;SDS011;49845;47.130;142.766;2022-10-29T00:44:49;3.83;;;1.83;;
63699;SDS011;49845;47.130;142.766;2022-10-29T00:47:22;5.45;;;2.20;;
63699;SDS011;49845;47.130;142.766;2022-10-29T00:49:55;3.70;;;1.80;;
63699;SDS011;49845;47.130;142.766;2022-10-29T00:52:29;6.60;;;2.90;;
63699;SDS011;49845;47.130;142.766;2022-10-29T00:55:04;3.30;;;2.03;;
63699;SDS011;49845;47.130;142.766;2022-10-29T00:57:39;9.00;;;2.47;;
63699;SDS011;49845;47.130;142.766;2022-10-29T01:00:17;6.28;;;2.28;;
63699;SDS011;49845;47.130;142.766;2022-10-29T01:02:50;9.25;;;2.80;;
63699;SDS011;49845;47.130;142.766;2022-10-29T01:05:22;8.43;;;3.25;;
63699;SDS011;49845;47.130;142.766;2022-10-29T01:07:57;4.93;;;1.88;;
63699;SDS011;49845;47.130;142.766;2022-10-29T01:10:31;5.20;;;1.88;;
63699;SDS011;49845;47.130;142.766;2022-10-29T01:16:07;10.05;;;3.40;;
63699;SDS011;49845;47.130;142.766;2022-10-29T01:18:46;5.18;;;2.40;;
63699;SDS011;49845;47.130;142.766;2022-10-29T01:24:24;7.18;;;2.95;;
63699;SDS011;49845;47.130;142.766;2022-10-29T01:30:13;11.80;;;3.35;;
63699;SDS011;49845;47.130;142.766;2022-10-29T01:32:52;4.60;;;2.08;;
63699;SDS011;49845;47.130;142.766;2022-10-29T01:35:36;5.93;;;2.55;;
63699;SDS011;49845;47.130;142.766;2022-10-29T01:38:20;8.32;;;2.60;;
63699;SDS011;49845;47.130;142.766;2022-10-29T01:40:57;10.90;;;2.33;;
63699;SDS011;49845;47.130;142.766;2022-10-29T01:43:34;7.22;;;2.40;;
63699;SDS011;49845;47.130;142.766;2022-10-29T01:46:10;6.18;;;1.95;;
63699;SDS011;49845;47.130;142.766;2022-10-29T01:48:49;2.75;;;1.27;;
63699;SDS011;49845;47.130;142.766;2022-10-29T01:51:25;5.00;;;1.38;;
63699;SDS011;49845;47.130;142.766;2022-10-29T01:54:05;7.72;;;2.20;;
63699;SDS011;49845;47.130;142.766;2022-10-29T01:56:38;8.18;;;1.35;;
63699;SDS011;49845;47.130;142.766;2022-10-29T01:59:10;7.35;;;2.55;;
63699;SDS011;49845;47.130;142.766;2022-10-29T02:02:13;11.93;;;2.30;;
63699;SDS011;49845;47.130;142.766;2022-10-29T02:04:56;7.45;;;1.95;;
63699;SDS011;49845;47.130;142.766;2022-10-29T02:07:44;4.47;;;1.50;;
63699;SDS011;49845;47.130;142.766;2022-10-29T02:10:23;4.53;;;1.50;;
63699;SDS011;49845;47.130;142.766;2022-10-29T02:13:01;5.78;;;1.42;;
63699;SDS011;49845;47.130;142.766;2022-10-29T02:15:34;6.03;;;1.55;;
63699;SDS011;49845;47.130;142.766;2022-10-29T02:18:06;6.68;;;1.38;;
63699;SDS011;49845;47.130;142.766;2022-10-29T02:20:44;5.35;;;1.42;;
63699;SDS011;49845;47.130;142.766;2022-10-29T02:23:15;5.75;;;1.70;;
63699;SDS011;49845;47.130;142.766;2022-10-29T02:25:49;4.10;;;1.25;;
63699;SDS011;49845;47.130;142.766;2022-10-29T02:28:20;6.45;;;1.30;;
63699;SDS011;49845;47.130;142.766;2022-10-29T02:30:53;5.00;;;1.70;;
63699;SDS011;49845;47.130;142.766;2022-10-29T02:33:24;6.50;;;2.03;;
63699;SDS011;49845;47.130;142.766;2022-10-29T02:36:00;8.73;;;1.45;;
63699;SDS011;49845;47.130;142.766;2022-10-29T02:38:37;8.77;;;1.65;;
63699;SDS011;49845;47.130;142.766;2022-10-29T02:41:22;4.25;;;1.23;;
63699;SDS011;49845;47.130;142.766;2022-10-29T02:44:01;4.22;;;1.20;;
63699;SDS011;49845;47.130;142.766;2022-10-29T02:46:40;4.70;;;1.40;;
63699;SDS011;49845;47.130;142.766;2022-10-29T02:55:57;12.05;;;3.47;;
63699;SDS011;49845;47.130;142.766;2022-10-29T02:58:30;6.72;;;2.20;;
63699;SDS011;49845;47.130;142.766;2022-10-29T03:01:01;7.50;;;1.80;;
63699;SDS011;49845;47.130;142.766;2022-10-29T03:03:33;13.18;;;3.15;;
63699;SDS011;49845;47.130;142.766;2022-10-29T03:06:05;8.85;;;2.80;;
63699;SDS011;49845;47.130;142.766;2022-10-29T03:08:41;7.00;;;2.50;;
63699;SDS011;49845;47.130;142.766;2022-10-29T03:11:14;9.60;;;2.08;;
63699;SDS011;49845;47.130;142.766;2022-10-29T03:13:48;10.10;;;2.75;;
63699;SDS011;49845;47.130;142.766;2022-10-29T03:16:22;6.78;;;2.53;;
63699;SDS011;49845;47.130;142.766;2022-10-29T03:18:53;5.60;;;2.33;;
63699;SDS011;49845;47.130;142.766;2022-10-29T03:21:24;8.57;;;2.72;;
63699;SDS011;49845;47.130;142.766;2022-10-29T03:23:56;6.53;;;2.40;;
63699;SDS011;49845;47.130;142.766;2022-10-29T03:26:33;11.50;;;2.75;;
63699;SDS011;49845;47.130;142.766;2022-10-29T03:29:12;5.75;;;2.90;;
63699;SDS011;49845;47.130;142.766;2022-10-29T03:31:44;9.20;;;2.63;;
63699;SDS011;49845;47.130;142.766;2022-10-29T03:34:15;11.38;;;2.90;;
63699;SDS011;49845;47.130;142.766;2022-10-29T03:36:45;11.20;;;3.53;;
63699;SDS011;49845;47.130;142.766;2022-10-29T03:39:16;12.05;;;2.45;;
63699;SDS011;49845;47.130;142.766;2022-10-29T03:41:49;13.35;;;3.50;;
63699;SDS011;49845;47.130;142.766;2022-10-29T03:44:23;17.95;;;2.90;;
63699;SDS011;49845;47.130;142.766;2022-10-29T03:46:54;100.38;;;4.75;;
63699;SDS011;49845;47.130;142.766;2022-10-29T03:49:25;123.90;;;6.25;;
63699;SDS011;49845;47.130;142.766;2022-10-29T03:51:56;142.30;;;6.13;;
63699;SDS011;49845;47.130;142.766;2022-10-29T03:54:30;185.07;;;8.70;;
63699;SDS011;49845;47.130;142.766;2022-10-29T03:57:02;84.53;;;6.03;;
63699;SDS011;49845;47.130;142.766;2022-10-29T03:59:33;24.58;;;2.70;;
63699;SDS011;49845;47.130;142.766;2022-10-29T04:02:04;53.13;;;4.18;;
63699;SDS011;49845;47.130;142.766;2022-10-29T04:04:35;32.75;;;4.40;;
63699;SDS011;49845;47.130;142.766;2022-10-29T04:07:06;89.72;;;6.20;;
63699;SDS011;49845;47.130;142.766;2022-10-29T04:09:40;59.03;;;5.68;;
63699;SDS011;49845;47.130;142.766;2022-10-29T04:12:13;167.15;;;7.30;;
63699;SDS011;49845;47.130;142.766;2022-10-29T04:14:44;124.45;;;7.18;;
63699;SDS011;49845;47.130;142.766;2022-10-29T04:17:43;92.68;;;6.50;;
63699;SDS011;49845;47.130;142.766;2022-10-29T04:20:32;27.15;;;5.45;;
63699;SDS011;49845;47.130;142.766;2022-10-29T04:23:45;11.15;;;3.50;;
63699;SDS011;49845;47.130;142.766;2022-10-29T04:26:49;18.02;;;4.15;;
63699;SDS011;49845;47.130;142.766;2022-10-29T04:30:01;8.68;;;2.92;;
63699;SDS011;49845;47.130;142.766;2022-10-29T04:32:46;15.40;;;4.32;;
63699;SDS011;49845;47.130;142.766;2022-10-29T04:35:25;8.60;;;4.22;;
63699;SDS011;49845;47.130;142.766;2022-10-29T04:38:20;17.30;;;3.80;;
63699;SDS011;49845;47.130;142.766;2022-10-29T04:41:04;12.23;;;3.55;;
63699;SDS011;49845;47.130;142.766;2022-10-29T04:43:50;11.52;;;3.55;;
63699;SDS011;49845;47.130;142.766;2022-10-29T04:46:38;9.32;;;2.65;;
63699;SDS011;49845;47.130;142.766;2022-10-29T04:49:36;11.75;;;3.17;;
63699;SDS011;49845;47.130;142.766;2022-10-29T04:52:15;23.63;;;3.40;;
63699;SDS011;49845;47.130;142.766;2022-10-29T04:54:59;23.58;;;4.30;;
63699;SDS011;49845;47.130;142.766;2022-10-29T04:57:48;25.40;;;3.88;;
63699;SDS011;49845;47.130;142.766;2022-10-29T05:00:28;30.83;;;4.38;;
63699;SDS011;49845;47.130;142.766;2022-10-29T05:03:10;36.80;;;4.25;;
63699;SDS011;49845;47.130;142.766;2022-10-29T05:05:54;37.40;;;3.95;;
63699;SDS011;49845;47.130;142.766;2022-10-29T05:08:34;32.83;;;3.50;;
63699;SDS011;49845;47.130;142.766;2022-10-29T05:11:17;29.63;;;3.35;;
63699;SDS011;49845;47.130;142.766;2022-10-29T05:13:55;22.20;;;3.45;;
63699;SDS011;49845;47.130;142.766;2022-10-29T06:45:18;7.28;;;2.45;;
63699;SDS011;49845;47.130;142.766;2022-10-29T06:48:07;4.65;;;2.38;;
63699;SDS011;49845;47.130;142.766;2022-10-29T06:51:05;6.95;;;3.00;;
63699;SDS011;49845;47.130;142.766;2022-10-29T06:53:46;8.27;;;2.78;;
63699;SDS011;49845;47.130;142.766;2022-10-29T06:56:23;6.43;;;2.30;;
63699;SDS011;49845;47.130;142.766;2022-10-29T06:59:08;6.43;;;2.40;;
63699;SDS011;49845;47.130;142.766;2022-10-29T07:01:57;5.63;;;2.42;;
63699;SDS011;49845;47.130;142.766;2022-10-29T07:04:36;5.57;;;2.20;;
63699;SDS011;49845;47.130;142.766;2022-10-29T07:07:16;11.52;;;2.80;;
63699;SDS011;49845;47.130;142.766;2022-10-29T07:10:31;5.53;;;2.70;;
63699;SDS011;49845;47.130;142.766;2022-10-29T07:13:09;6.45;;;2.92;;
63699;SDS011;49845;47.130;142.766;2022-10-29T07:15:58;11.50;;;3.90;;
63699;SDS011;49845;47.130;142.766;2022-10-29T07:19:00;13.10;;;3.58;;
63699;SDS011;49845;47.130;142.766;2022-10-29T07:21:39;7.13;;;3.00;;
63699;SDS011;49845;47.130;142.766;2022-10-29T07:24:22;7.85;;;2.60;;
63699;SDS011;49845;47.130;142.766;2022-10-29T07:27:21;11.20;;;3.50;;
63699;SDS011;49845;47.130;142.766;2022-10-29T07:30:07;11.13;;;3.40;;
63699;SDS011;49845;47.130;142.766;2022-10-29T07:32:44;11.80;;;3.78;;
63699;SDS011;49845;47.130;142.766;2022-10-29T07:35:41;14.15;;;3.92;;
63699;SDS011;49845;47.130;142.766;2022-10-29T07:38:26;14.75;;;3.38;;
63699;SDS011;49845;47.130;142.766;2022-10-29T07:41:04;12.82;;;4.00;;
63699;SDS011;49845;47.130;142.766;2022-10-29T07:43:42;17.63;;;4.32;;
63699;SDS011;49845;47.130;142.766;2022-10-29T07:46:36;13.82;;;4.20;;
63699;SDS011;49845;47.130;142.766;2022-10-29T07:49:14;16.95;;;6.00;;
63699;SDS011;49845;47.130;142.766;2022-10-29T07:52:27;14.98;;;5.25;;
63699;SDS011;49845;47.130;142.766;2022-10-29T07:55:20;14.73;;;4.20;;
63699;SDS011;49845;47.130;142.766;2022-10-29T07:58:17;6.07;;;2.80;;
63699;SDS011;49845;47.130;142.766;2022-10-29T08:00:54;10.00;;;4.07;;
63699;SDS011;49845;47.130;142.766;2022-10-29T08:06:34;16.42;;;4.60;;
63699;SDS011;49845;47.130;142.766;2022-10-29T08:09:13;15.85;;;4.07;;
63699;SDS011;49845;47.130;142.766;2022-10-29T08:12:17;20.02;;;4.25;;
63699;SDS011;49845;47.130;142.766;2022-10-29T08:15:03;15.93;;;3.95;;
63699;SDS011;49845;47.130;142.766;2022-10-29T08:17:59;12.00;;;3.33;;
63699;SDS011;49845;47.130;142.766;2022-10-29T08:21:02;22.85;;;3.95;;
63699;SDS011;49845;47.130;142.766;2022-10-29T08:23:47;40.90;;;4.10;;
63699;SDS011;49845;47.130;142.766;2022-10-29T08:26:41;35.50;;;4.80;;
63699;SDS011;49845;47.130;142.766;2022-10-29T08:29:23;62.92;;;6.38;;
63699;SDS011;49845;47.130;142.766;2022-10-29T08:32:04;28.15;;;6.65;;
63699;SDS011;49845;47.130;142.766;2022-10-29T08:34:56;26.50;;;6.90;;
63699;SDS011;49845;47.130;142.766;2022-10-29T08:37:49;20.73;;;5.20;;
63699;SDS011;49845;47.130;142.766;2022-10-29T08:40:48;18.30;;;4.47;;
63699;SDS011;49845;47.130;142.766;2022-10-29T08:44:08;17.15;;;3.70;;
63699;SDS011;49845;47.130;142.766;2022-10-29T08:47:14;11.77;;;3.22;;
63699;SDS011;49845;47.130;142.766;2022-10-29T08:50:01;11.48;;;2.80;;
63699;SDS011;49845;47.130;142.766;2022-10-29T08:52:58;8.73;;;2.88;;
63699;SDS011;49845;47.130;142.766;2022-10-29T08:55:49;11.50;;;2.95;;
63699;SDS011;49845;47.130;142.766;2022-10-29T08:58:35;15.50;;;2.80;;
63699;SDS011;49845;47.130;142.766;2022-10-29T09:01:30;12.93;;;4.03;;
63699;SDS011;49845;47.130;142.766;2022-10-29T09:04:13;10.55;;;3.70;;
63699;SDS011;49845;47.130;142.766;2022-10-29T09:10:31;16.48;;;3.17;;
63699;SDS011;49845;47.130;142.766;2022-10-29T09:13:26;12.73;;;3.10;;
63699;SDS011;49845;47.130;142.766;2022-10-29T09:16:25;13.75;;;2.72;;
63699;SDS011;49845;47.130;142.766;2022-10-29T09:19:36;12.30;;;3.40;;
63699;SDS011;49845;47.130;142.766;2022-10-29T09:22:37;10.35;;;3.00;;
63699;SDS011;49845;47.130;142.766;2022-10-29T09:25:32;10.30;;;2.72;;
63699;SDS011;49845;47.130;142.766;2022-10-29T09:28:29;8.48;;;3.08;;
63699;SDS011;49845;47.130;142.766;2022-10-29T09:31:20;10.23;;;3.05;;
63699;SDS011;49845;47.130;142.766;2022-10-29T09:34:12;16.13;;;3.65;;
63699;SDS011;49845;47.130;142.766;2022-10-29T09:37:00;10.02;;;2.83;;
63699;SDS011;49845;47.130;142.766;2022-10-29T09:39:46;14.05;;;2.88;;
63699;SDS011;49845;47.130;142.766;2022-10-29T09:42:25;11.63;;;2.95;;
63699;SDS011;49845;47.130;142.766;2022-10-29T09:45:34;16.40;;;3.42;;
63699;SDS011;49845;47.130;142.766;2022-10-29T09:48:21;16.92;;;3.17;;
63699;SDS011;49845;47.130;142.766;2022-10-29T09:51:09;12.60;;;3.72;;
63699;SDS011;49845;47.130;142.766;2022-10-29T09:54:12;17.38;;;3.63;;
63699;SDS011;49845;47.130;142.766;2022-10-29T09:57:04;27.92;;;4.63;;
63699;SDS011;49845;47.130;142.766;2022-10-29T09:59:54;13.80;;;3.60;;
63699;SDS011;49845;47.130;142.766;2022-10-29T10:02:56;164.23;;;9.98;;
63699;SDS011;49845;47.130;142.766;2022-10-29T10:05:55;123.50;;;7.68;;
63699;SDS011;49845;47.130;142.766;2022-10-29T10:08:54;122.28;;;8.45;;
63699;SDS011;49845;47.130;142.766;2022-10-29T10:11:36;108.57;;;8.00;;
63699;SDS011;49845;47.130;142.766;2022-10-29T10:14:26;39.85;;;6.18;;
63699;SDS011;49845;47.130;142.766;2022-10-29T10:17:13;126.55;;;7.90;;
63699;SDS011;49845;47.130;142.766;2022-10-29T10:20:25;211.43;;;12.88;;
63699;SDS011;49845;47.130;142.766;2022-10-29T10:23:22;469.13;;;20.27;;
63699;SDS011;49845;47.130;142.766;2022-10-29T10:29:24;233.95;;;14.52;;
63699;SDS011;49845;47.130;142.766;2022-10-29T10:32:09;274.52;;;13.93;;
63699;SDS011;49845;47.130;142.766;2022-10-29T10:34:53;197.98;;;11.52;;
63699;SDS011;49845;47.130;142.766;2022-10-29T10:37:35;111.00;;;9.45;;
63699;SDS011;49845;47.130;142.766;2022-10-29T10:40:21;191.50;;;11.07;;
63699;SDS011;49845;47.130;142.766;2022-10-29T10:43:14;126.50;;;11.18;;
63699;SDS011;49845;47.130;142.766;2022-10-29T10:45:57;171.88;;;10.85;;
63699;SDS011;49845;47.130;142.766;2022-10-29T10:48:56;188.57;;;12.90;;
63699;SDS011;49845;47.130;142.766;2022-10-29T10:51:44;252.27;;;14.70;;
63699;SDS011;49845;47.130;142.766;2022-10-29T10:54:54;382.55;;;17.20;;
63699;SDS011;49845;47.130;142.766;2022-10-29T10:57:41;199.18;;;13.85;;
63699;SDS011;49845;47.130;142.766;2022-10-29T11:00:46;83.15;;;7.68;;
63699;SDS011;49845;47.130;142.766;2022-10-29T11:03:40;256.90;;;11.15;;
63699;SDS011;49845;47.130;142.766;2022-10-29T11:06:40;203.82;;;9.43;;
63699;SDS011;49845;47.130;142.766;2022-10-29T11:09:31;187.23;;;9.15;;
63699;SDS011;49845;47.130;142.766;2022-10-29T11:12:18;262.98;;;11.55;;
63699;SDS011;49845;47.130;142.766;2022-10-29T11:15:04;288.58;;;14.35;;
63699;SDS011;49845;47.130;142.766;2022-10-29T11:20:54;239.63;;;13.60;;
63699;SDS011;49845;47.130;142.766;2022-10-29T11:23:55;207.57;;;10.15;;
63699;SDS011;49845;47.130;142.766;2022-10-29T11:26:50;95.85;;;7.70;;
63699;SDS011;49845;47.130;142.766;2022-10-29T11:29:37;70.18;;;6.00;;
63699;SDS011;49845;47.130;142.766;2022-10-29T11:32:33;49.70;;;4.43;;
63699;SDS011;49845;47.130;142.766;2022-10-29T11:38:38;38.53;;;3.92;;
63699;SDS011;49845;47.130;142.766;2022-10-29T11:41:24;30.65;;;4.20;;
63699;SDS011;49845;47.130;142.766;2022-10-29T11:44:18;21.98;;;3.88;;
63699;SDS011;49845;47.130;142.766;2022-10-29T11:47:06;14.63;;;3.13;;
63699;SDS011;49845;47.130;142.766;2022-10-29T11:50:01;35.15;;;3.45;;
63699;SDS011;49845;47.130;142.766;2022-10-29T11:53:03;12.68;;;3.15;;
63699;SDS011;49845;47.130;142.766;2022-10-29T11:59:33;11.52;;;2.67;;
63699;SDS011;49845;47.130;142.766;2022-10-29T12:02:40;13.40;;;2.78;;
63699;SDS011;49845;47.130;142.766;2022-10-29T12:05:55;8.43;;;2.30;;
63699;SDS011;49845;47.130;142.766;2022-10-29T12:08:46;7.28;;;2.13;;
63699;SDS011;49845;47.130;142.766;2022-10-29T12:11:28;10.98;;;2.58;;
63699;SDS011;49845;47.130;142.766;2022-10-29T12:14:14;5.05;;;2.22;;
63699;SDS011;49845;47.130;142.766;2022-10-29T12:16:57;10.65;;;2.20;;
63699;SDS011;49845;47.130;142.766;2022-10-29T12:19:36;9.40;;;2.55;;
63699;SDS011;49845;47.130;142.766;2022-10-29T12:22:36;10.98;;;2.35;;
63699;SDS011;49845;47.130;142.766;2022-10-29T12:25:18;19.42;;;3.08;;
63699;SDS011;49845;47.130;142.766;2022-10-29T12:28:02;66.43;;;4.35;;
63699;SDS011;49845;47.130;142.766;2022-10-29T12:30:48;82.93;;;4.97;;
63699;SDS011;49845;47.130;142.766;2022-10-29T12:33:34;27.52;;;3.22;;
63699;SDS011;49845;47.130;142.766;2022-10-29T12:36:18;44.92;;;3.88;;
63699;SDS011;49845;47.130;142.766;2022-10-29T12:38:55;23.20;;;3.53;;
63699;SDS011;49845;47.130;142.766;2022-10-29T12:41:30;18.23;;;3.60;;
63699;SDS011;49845;47.130;142.766;2022-10-29T12:44:06;19.17;;;3.00;;
63699;SDS011;49845;47.130;142.766;2022-10-29T12:46:47;12.70;;;3.17;;
63699;SDS011;49845;47.130;142.766;2022-10-29T12:49:26;19.80;;;3.10;;
63699;SDS011;49845;47.130;142.766;2022-10-29T12:52:09;66.85;;;4.93;;
63699;SDS011;49845;47.130;142.766;2022-10-29T12:54:48;75.63;;;5.00;;
63699;SDS011;49845;47.130;142.766;2022-10-29T12:57:31;72.15;;;4.95;;
63699;SDS011;49845;47.130;142.766;2022-10-29T13:09:17;71.88;;;4.57;;
63699;SDS011;49845;47.130;142.766;2022-10-29T13:11:51;113.53;;;5.75;;
63699;SDS011;49845;47.130;142.766;2022-10-29T13:14:24;90.93;;;4.70;;
63699;SDS011;49845;47.130;142.766;2022-10-29T13:17:00;49.85;;;4.65;;
63699;SDS011;49845;47.130;142.766;2022-10-29T13:19:38;101.47;;;5.35;;
63699;SDS011;49845;47.130;142.766;2022-10-29T13:22:33;87.68;;;4.95;;
63699;SDS011;49845;47.130;142.766;2022-10-29T13:25:28;44.72;;;3.85;;
63699;SDS011;49845;47.130;142.766;2022-10-29T13:43:36;61.67;;;4.78;;
63699;SDS011;49845;47.130;142.766;2022-10-29T13:49:14;73.82;;;4.68;;
63699;SDS011;49845;47.130;142.766;2022-10-29T13:51:48;83.70;;;5.65;;
63699;SDS011;49845;47.130;142.766;2022-10-29T13:54:23;61.70;;;5.57;;
63699;SDS011;49845;47.130;142.766;2022-10-29T13:57:02;106.20;;;5.28;;
63699;SDS011;49845;47.130;142.766;2022-10-29T13:59:40;36.08;;;4.07;;
63699;SDS011;49845;47.130;142.766;2022-10-29T14:02:25;5.13;;;2.17;;
63699;SDS011;49845;47.130;142.766;2022-10-29T14:05:11;12.07;;;3.03;;
63699;SDS011;49845;47.130;142.766;2022-10-29T14:07:49;12.73;;;2.63;;
63699;SDS011;49845;47.130;142.766;2022-10-29T14:10:24;5.40;;;1.80;;
63699;SDS011;49845;47.130;142.766;2022-10-29T14:13:03;7.22;;;1.73;;
63699;SDS011;49845;47.130;142.766;2022-10-29T14:15:41;4.40;;;2.10;;
63699;SDS011;49845;47.130;142.766;2022-10-29T14:18:31;16.00;;;2.10;;
63699;SDS011;49845;47.130;142.766;2022-10-29T14:21:05;10.40;;;1.80;;
63699;SDS011;49845;47.130;142.766;2022-10-29T14:23:53;6.30;;;1.80;;
63699;SDS011;49845;47.130;142.766;2022-10-29T14:26:26;5.35;;;1.50;;
63699;SDS011;49845;47.130;142.766;2022-10-29T14:29:11;2.88;;;1.30;;
63699;SDS011;49845;47.130;142.766;2022-10-29T14:31:43;8.65;;;1.98;;
63699;SDS011;49845;47.130;142.766;2022-10-29T14:34:22;10.32;;;1.70;;
63699;SDS011;49845;47.130;142.766;2022-10-29T14:36:56;7.47;;;1.90;;
63699;SDS011;49845;47.130;142.766;2022-10-29T14:39:34;8.07;;;2.03;;
63699;SDS011;49845;47.130;142.766;2022-10-29T14:42:24;12.80;;;1.88;;
63699;SDS011;49845;47.130;142.766;2022-10-29T14:45:00;4.78;;;1.80;;
63699;SDS011;49845;47.130;142.766;2022-10-29T14:47:34;4.75;;;1.38;;
63699;SDS011;49845;47.130;142.766;2022-10-29T14:50:12;8.18;;;1.90;;
63699;SDS011;49845;47.130;142.766;2022-10-29T14:52:48;8.07;;;1.98;;
63699;SDS011;49845;47.130;142.766;2022-10-29T14:55:23;10.35;;;2.20;;
63699;SDS011;49845;47.130;142.766;2022-10-29T14:57:59;6.45;;;1.80;;
63699;SDS011;49845;47.130;142.766;2022-10-29T15:00:36;4.38;;;1.48;;
63699;SDS011;49845;47.130;142.766;2022-10-29T15:03:13;5.38;;;1.98;;
63699;SDS011;49845;47.130;142.766;2022-10-29T15:05:55;7.30;;;1.70;;
63699;SDS011;49845;47.130;142.766;2022-10-29T15:08:40;7.53;;;2.25;;
63699;SDS011;49845;47.130;142.766;2022-10-29T15:11:32;11.48;;;2.15;;
63699;SDS011;49845;47.130;142.766;2022-10-29T15:14:19;11.38;;;2.10;;
63699;SDS011;49845;47.130;142.766;2022-10-29T15:16:54;8.07;;;2.08;;
63699;SDS011;49845;47.130;142.766;2022-10-29T15:19:28;11.70;;;2.72;;
63699;SDS011;49845;47.130;142.766;2022-10-29T15:22:00;7.10;;;2.30;;
63699;SDS011;49845;47.130;142.766;2022-10-29T15:24:37;7.20;;;2.58;;
63699;SDS011;49845;47.130;142.766;2022-10-29T15:27:13;12.98;;;2.30;;
63699;SDS011;49845;47.130;142.766;2022-10-29T15:29:45;11.20;;;2.10;;
63699;SDS011;49845;47.130;142.766;2022-10-29T15:32:17;9.40;;;2.20;;
63699;SDS011;49845;47.130;142.766;2022-10-29T15:34:52;9.60;;;2.63;;
63699;SDS011;49845;47.130;142.766;2022-10-29T15:37:37;8.00;;;2.63;;
63699;SDS011;49845;47.130;142.766;2022-10-29T15:40:11;8.50;;;1.80;;
63699;SDS011;49845;47.130;142.766;2022-10-29T15:42:43;9.85;;;2.10;;
63699;SDS011;49845;47.130;142.766;2022-10-29T15:45:18;4.03;;;2.13;;
63699;SDS011;49845;47.130;142.766;2022-10-29T15:47:52;8.75;;;2.45;;
63699;SDS011;49845;47.130;142.766;2022-10-29T15:50:27;4.03;;;1.23;;
63699;SDS011;49845;47.130;142.766;2022-10-29T15:53:10;8.05;;;1.48;;
63699;SDS011;49845;47.130;142.766;2022-10-29T15:55:43;6.30;;;1.60;;
63699;SDS011;49845;47.130;142.766;2022-10-29T15:58:16;7.45;;;1.42;;
63699;SDS011;49845;47.130;142.766;2022-10-29T16:00:54;7.93;;;2.05;;
63699;SDS011;49845;47.130;142.766;2022-10-29T16:03:41;9.48;;;1.92;;
63699;SDS011;49845;47.130;142.766;2022-10-29T16:06:12;10.75;;;1.85;;
63699;SDS011;49845;47.130;142.766;2022-10-29T16:08:47;7.07;;;2.25;;
63699;SDS011;49845;47.130;142.766;2022-10-29T16:11:22;6.55;;;1.55;;
63699;SDS011;49845;47.130;142.766;2022-10-29T16:13:53;5.53;;;2.17;;
63699;SDS011;49845;47.130;142.766;2022-10-29T16:16:24;4.50;;;1.40;;
63699;SDS011;49845;47.130;142.766;2022-10-29T16:18:58;6.20;;;1.90;;
63699;SDS011;49845;47.130;142.766;2022-10-29T16:21:29;6.68;;;1.67;;
63699;SDS011;49845;47.130;142.766;2022-10-29T16:24:01;4.07;;;1.35;;
63699;SDS011;49845;47.130;142.766;2022-10-29T16:26:32;6.90;;;1.40;;
63699;SDS011;49845;47.130;142.766;2022-10-29T16:29:03;6.55;;;1.30;;
63699;SDS011;49845;47.130;142.766;2022-10-29T16:31:34;8.57;;;1.20;;
63699;SDS011;49845;47.130;142.766;2022-10-29T16:34:05;4.80;;;1.58;;
63699;SDS011;49845;47.130;142.766;2022-10-29T16:36:40;6.78;;;1.35;;
63699;SDS011;49845;47.130;142.766;2022-10-29T16:39:12;6.07;;;1.00;;
63699;SDS011;49845;47.130;142.766;2022-10-29T16:41:43;4.55;;;1.23;;
63699;SDS011;49845;47.130;142.766;2022-10-29T16:44:14;3.42;;;1.10;;
63699;SDS011;49845;47.130;142.766;2022-10-29T16:46:47;2.47;;;0.80;;
63699;SDS011;49845;47.130;142.766;2022-10-29T16:49:18;3.67;;;1.05;;
63699;SDS011;49845;47.130;142.766;2022-10-29T16:51:50;0.90;;;0.70;;
63699;SDS011;49845;47.130;142.766;2022-10-29T16:54:22;2.05;;;0.90;;
63699;SDS011;49845;47.130;142.766;2022-10-29T16:56:53;1.83;;;0.93;;
63699;SDS011;49845;47.130;142.766;2022-10-29T16:59:24;2.50;;;1.10;;
63699;SDS011;49845;47.130;142.766;2022-10-29T17:01:55;2.60;;;0.90;;
63699;SDS011;49845;47.130;142.766;2022-10-29T17:04:27;1.45;;;0.85;;
63699;SDS011;49845;47.130;142.766;2022-10-29T17:06:58;1.10;;;0.90;;
63699;SDS011;49845;47.130;142.766;2022-10-29T17:09:31;2.33;;;0.95;;
63699;SDS011;49845;47.130;142.766;2022-10-29T17:12:03;3.40;;;0.90;;
63699;SDS011;49845;47.130;142.766;2022-10-29T17:14:34;0.90;;;0.73;;
63699;SDS011;49845;47.130;142.766;2022-10-29T17:17:06;3.95;;;0.90;;
63699;SDS011;49845;47.130;142.766;2022-10-29T17:19:36;3.88;;;1.00;;
63699;SDS011;49845;47.130;142.766;2022-10-29T17:22:07;3.58;;;1.20;;
63699;SDS011;49845;47.130;142.766;2022-10-29T17:24:44;1.02;;;0.80;;
63699;SDS011;49845;47.130;142.766;2022-10-29T17:27:14;3.22;;;0.90;;
63699;SDS011;49845;47.130;142.766;2022-10-29T17:29:45;2.58;;;0.80;;
63699;SDS011;49845;47.130;142.766;2022-10-29T17:32:16;2.08;;;0.90;;
63699;SDS011;49845;47.130;142.766;2022-10-29T17:34:47;4.82;;;0.75;;
63699;SDS011;49845;47.130;142.766;2022-10-29T17:37:18;6.85;;;0.90;;
63699;SDS011;49845;47.130;142.766;2022-10-29T17:39:50;1.48;;;0.77;;
63699;SDS011;49845;47.130;142.766;2022-10-29T17:42:21;0.70;;;0.60;;
63699;SDS011;49845;47.130;142.766;2022-10-29T17:44:53;1.08;;;0.80;;
63699;SDS011;49845;47.130;142.766;2022-10-29T17:47:24;0.80;;;0.80;;
63699;SDS011;49845;47.130;142.766;2022-10-29T17:49:55;4.05;;;0.90;;
63699;SDS011;49845;47.130;142.766;2022-10-29T17:52:26;6.10;;;0.85;;
63699;SDS011;49845;47.130;142.766;2022-10-29T17:54:58;2.38;;;0.90;;
63699;SDS011;49845;47.130;142.766;2022-10-29T17:57:29;2.50;;;0.70;;
63699;SDS011;49845;47.130;142.766;2022-10-29T18:00:03;5.78;;;1.00;;
63699;SDS011;49845;47.130;142.766;2022-10-29T18:02:35;3.47;;;0.88;;
63699;SDS011;49845;47.130;142.766;2022-10-29T18:05:07;8.32;;;1.05;;
63699;SDS011;49845;47.130;142.766;2022-10-29T18:07:37;3.38;;;1.15;;
63699;SDS011;49845;47.130;142.766;2022-10-29T18:10:10;11.10;;;1.27;;